VEJS/IXW METAR and TAF weather

Enter ICAO airport designator
Station Type Date Time Source
VEJS METAR 2020/09/22 02:00 UTC NOAA

VEJS 220200Z 16003KT 3500 RA SCT015 SCT025 OVC080 26/26 Q1000


Station Type Date Time Source
VEJS Decoded METAR 2020/09/22 02:00 UTC NOAA

Jamshedpur, India (VEJS) 22-49N 086-11E 142M
Sep 21, 2020 - 10:00 PM EDT / 2020.09.22 0200 UTC
Wind: from the SSE (160 degrees) at 3 MPH (3 KT):0
Visibility: 2 mile(s):0
Sky conditions: overcast
Weather: rain
Temperature: 78 F (26 C)
Dew Point: 78 F (26 C)
Relative Humidity: 100%
Pressure (altimeter): 29.53 in. Hg (1000 hPa)
ob: VEJS 220200Z 16003KT 3500 RA SCT015 SCT025 OVC080 26/26 Q1000
cycle: 2

Station Type Date Time Source
VEJS TAF 2009/11/01 09:00 UTC NOAA

TAF VEJS 010900Z 0112/0121 36004KT 2500 HZ FEW020 SCT025 SCT100
BECMG 0116/0118 00000KT 2000 HZ FEW018 SCT
BECMG 0119/0121 00000KT 1600 BR

Example: see airport list